Time;durP1;ratioP1;P1;durP2;ratioP2;P2;SDS_P1;SDS_P2;PMS_P1;PMS_P2;Temp;Humidity;BMP_temperature;BMP_pressure;BME280_temperature;BME280_humidity;BME280_pressure;Samples;Min_cycle;Max_cycle;Signal;HPM_P1;HPM_P2
2023/01/23 00:02:00;;;;;;;11.32;6.75;;;;;;;;;;5082685;28;21131;-69
2023/01/23 00:04:46;;;;;;;14.20;8.45;;;;;;;;;;5077323;28;20028;-70
2023/01/23 00:07:31;;;;;;;13.82;7.57;;;;;;;;;;5056609;28;20082;-72
2023/01/23 00:10:16;;;;;;;12.07;7.15;;;;;;;;;;5065150;28;20078;-71
2023/01/23 00:13:01;;;;;;;14.70;8.80;;;;;;;;;;5080626;28;20050;-74
2023/01/23 00:15:47;;;;;;;13.68;8.30;;;;;;;;;;5065859;28;20032;-75
2023/01/23 00:18:32;;;;;;;12.00;7.22;;;;;;;;;;5069622;28;20036;-71
2023/01/23 00:21:21;;;;;;;13.57;7.90;;;;;;;;;;5068931;28;20031;-73
2023/01/23 00:24:09;;;;;;;12.97;7.77;;;;;;;;;;5075433;28;20051;-72
2023/01/23 00:26:54;;;;;;;12.98;7.13;;;;;;;;;;5084853;28;20023;-74
2023/01/23 00:29:40;;;;;;;16.23;9.05;;;;;;;;;;5055421;28;20025;-73
2023/01/23 00:32:26;;;;;;;15.57;8.20;;;;;;;;;;5074755;28;20012;-79
2023/01/23 00:35:11;;;;;;;14.43;8.23;;;;;;;;;;5068808;28;20016;-72
2023/01/23 00:37:56;;;;;;;11.98;7.70;;;;;;;;;;5059030;28;20523;-87
2023/01/23 00:40:42;;;;;;;13.95;8.23;;;;;;;;;;5073230;28;20028;-85
2023/01/23 00:43:27;;;;;;;13.07;7.60;;;;;;;;;;5079282;28;20494;-87
2023/01/23 00:46:12;;;;;;;13.95;8.48;;;;;;;;;;5074842;28;20107;-85
2023/01/23 00:48:57;;;;;;;13.27;7.88;;;;;;;;;;5053504;28;20700;-85
2023/01/23 00:51:43;;;;;;;16.50;9.05;;;;;;;;;;5074821;28;20025;-76
2023/01/23 00:54:29;;;;;;;13.50;7.32;;;;;;;;;;5059384;28;20032;-70
2023/01/23 00:57:14;;;;;;;12.88;7.53;;;;;;;;;;5060146;28;20031;-71
2023/01/23 01:00:00;;;;;;;14.18;8.40;;;;;;;;;;5076718;28;20426;-72
2023/01/23 01:02:45;;;;;;;13.43;8.65;;;;;;;;;;5076792;28;20039;-71
2023/01/23 01:05:31;;;;;;;13.93;7.53;;;;;;;;;;5070505;28;20036;-71
2023/01/23 01:08:16;;;;;;;12.65;7.15;;;;;;;;;;5077641;28;20298;-71
2023/01/23 01:11:01;;;;;;;12.15;7.07;;;;;;;;;;5076616;28;20520;-71
2023/01/23 01:13:46;;;;;;;14.27;8.77;;;;;;;;;;5061215;28;20025;-86
2023/01/23 01:16:32;;;;;;;13.02;7.90;;;;;;;;;;5068807;28;20044;-86
2023/01/23 01:19:18;;;;;;;12.35;7.32;;;;;;;;;;5061875;28;20033;-86
2023/01/23 01:22:03;;;;;;;11.90;7.40;;;;;;;;;;5084002;28;20056;-85
2023/01/23 01:24:48;;;;;;;14.32;8.25;;;;;;;;;;5071322;28;20510;-86
2023/01/23 01:27:33;;;;;;;12.95;7.70;;;;;;;;;;5085061;28;20033;-73
2023/01/23 01:30:19;;;;;;;14.70;8.95;;;;;;;;;;5078401;28;20035;-76
2023/01/23 01:33:04;;;;;;;12.90;7.65;;;;;;;;;;5088975;27;20028;-72
2023/01/23 01:35:49;;;;;;;14.55;8.43;;;;;;;;;;5063845;28;20047;-73
2023/01/23 01:38:34;;;;;;;12.80;7.80;;;;;;;;;;5062511;28;20032;-72
2023/01/23 01:41:20;;;;;;;13.60;8.13;;;;;;;;;;5073827;28;20023;-72
2023/01/23 01:44:05;;;;;;;14.23;7.88;;;;;;;;;;5077046;28;20048;-72
2023/01/23 01:46:50;;;;;;;12.85;6.95;;;;;;;;;;5062059;28;20020;-74
2023/01/23 01:49:35;;;;;;;14.23;8.10;;;;;;;;;;5076388;28;20024;-84
2023/01/23 01:52:21;;;;;;;11.73;7.30;;;;;;;;;;5087245;28;20028;-84
2023/01/23 01:55:06;;;;;;;12.15;6.45;;;;;;;;;;5078766;28;20056;-84
2023/01/23 01:57:53;;;;;;;14.80;8.25;;;;;;;;;;5066422;28;20024;-84
2023/01/23 02:00:38;;;;;;;12.40;8.07;;;;;;;;;;5064479;28;20046;-86
2023/01/23 02:03:24;;;;;;;13.00;7.30;;;;;;;;;;5065210;28;20555;-85
2023/01/23 02:06:10;;;;;;;14.85;9.32;;;;;;;;;;5081018;28;20116;-74
2023/01/23 02:09:04;;;;;;;14.93;8.18;;;;;;;;;;5077888;28;20031;-75
2023/01/23 02:11:50;;;;;;;13.07;7.68;;;;;;;;;;5075672;28;20028;-75
2023/01/23 02:14:35;;;;;;;13.45;7.38;;;;;;;;;;5069753;28;20922;-74
2023/01/23 02:17:20;;;;;;;11.63;6.97;;;;;;;;;;5069686;28;20044;-76
2023/01/23 02:20:17;;;;;;;14.18;8.10;;;;;;;;;;5069271;28;20115;-75
2023/01/23 02:23:02;;;;;;;10.93;6.63;;;;;;;;;;5069258;28;20411;-76
2023/01/23 02:26:00;;;;;;;14.55;8.00;;;;;;;;;;5073161;28;20119;-71
2023/01/23 02:28:47;;;;;;;13.13;8.32;;;;;;;;;;5073224;28;20035;-70
2023/01/23 02:31:33;;;;;;;13.63;8.50;;;;;;;;;;5072774;28;20047;-70
2023/01/23 02:34:21;;;;;;;14.45;8.27;;;;;;;;;;5089497;28;20029;-70
2023/01/23 02:37:07;;;;;;;15.32;8.25;;;;;;;;;;5074572;28;20082;-70
2023/01/23 02:39:52;;;;;;;14.05;8.55;;;;;;;;;;5072674;28;20051;-72
2023/01/23 02:42:43;;;;;;;13.50;7.68;;;;;;;;;;5071816;28;20040;-79
2023/01/23 02:45:30;;;;;;;14.32;8.05;;;;;;;;;;5069695;28;20039;-75
2023/01/23 02:48:15;;;;;;;13.85;7.55;;;;;;;;;;5088654;27;20040;-75
2023/01/23 02:51:00;;;;;;;15.65;8.65;;;;;;;;;;5070316;28;20020;-74
2023/01/23 02:53:46;;;;;;;13.82;8.43;;;;;;;;;;5072520;28;20028;-77
2023/01/23 02:56:32;;;;;;;13.70;8.05;;;;;;;;;;5071961;28;20027;-76
2023/01/23 03:02:21;;;;;;;15.82;8.75;;;;;;;;;;5073047;28;20028;-87
2023/01/23 03:05:07;;;;;;;13.82;8.55;;;;;;;;;;5060732;28;20027;-78
2023/01/23 03:07:52;;;;;;;14.00;8.10;;;;;;;;;;5064181;28;20024;-76
2023/01/23 03:10:38;;;;;;;14.10;9.00;;;;;;;;;;5068581;28;20394;-79
2023/01/23 03:13:23;;;;;;;14.13;8.68;;;;;;;;;;5090212;28;20028;-77
2023/01/23 03:16:08;;;;;;;15.32;9.60;;;;;;;;;;5073215;28;20107;-79
2023/01/23 03:18:56;;;;;;;15.27;8.73;;;;;;;;;;5065403;28;20020;-70
2023/01/23 03:21:41;;;;;;;15.88;9.68;;;;;;;;;;5086635;28;20111;-88
2023/01/23 03:24:26;;;;;;;14.65;8.63;;;;;;;;;;5059961;28;20032;-85
2023/01/23 03:27:12;;;;;;;15.88;8.80;;;;;;;;;;5069729;28;20028;-85
2023/01/23 03:30:12;;;;;;;14.82;9.23;;;;;;;;;;5066226;28;20031;-86
2023/01/23 03:32:57;;;;;;;16.08;8.68;;;;;;;;;;5075174;28;20028;-86
2023/01/23 03:35:43;;;;;;;15.63;9.57;;;;;;;;;;5075390;28;20360;-87
2023/01/23 03:38:28;;;;;;;15.30;8.75;;;;;;;;;;5066067;28;20051;-78
2023/01/23 03:41:25;;;;;;;15.75;10.20;;;;;;;;;;5073414;28;20112;-75
2023/01/23 03:44:10;;;;;;;14.85;9.23;;;;;;;;;;5057277;28;20048;-78
2023/01/23 03:46:56;;;;;;;17.05;10.43;;;;;;;;;;5071561;28;20020;-78
2023/01/23 03:49:41;;;;;;;15.27;9.48;;;;;;;;;;5076273;28;20043;-78
2023/01/23 03:52:26;;;;;;;14.77;7.82;;;;;;;;;;5064327;28;20020;-78
2023/01/23 03:55:11;;;;;;;14.30;9.13;;;;;;;;;;5080235;28;20036;-87
2023/01/23 03:57:57;;;;;;;14.90;8.93;;;;;;;;;;5079341;28;20113;-86
2023/01/23 04:00:42;;;;;;;18.33;10.63;;;;;;;;;;5072125;28;20162;-85
2023/01/23 04:03:27;;;;;;;14.57;8.73;;;;;;;;;;5059183;28;20036;-87
2023/01/23 04:06:12;;;;;;;15.30;9.48;;;;;;;;;;5082585;28;20830;-87
2023/01/23 04:08:57;;;;;;;14.45;8.38;;;;;;;;;;5077991;28;20028;-87
2023/01/23 04:11:43;;;;;;;15.15;9.13;;;;;;;;;;5078713;28;20104;-87
2023/01/23 04:14:36;;;;;;;15.57;9.18;;;;;;;;;;5076304;28;20028;-75
2023/01/23 04:17:21;;;;;;;16.58;10.18;;;;;;;;;;5079360;28;20021;-72
2023/01/23 04:20:06;;;;;;;14.50;9.63;;;;;;;;;;5061237;28;20040;-72
2023/01/23 04:22:52;;;;;;;17.75;10.23;;;;;;;;;;5068912;28;20137;-71
2023/01/23 04:25:37;;;;;;;17.38;10.27;;;;;;;;;;5062151;28;20059;-71
2023/01/23 04:28:22;;;;;;;17.60;9.80;;;;;;;;;;5067059;28;20055;-72
2023/01/23 04:31:08;;;;;;;16.38;10.07;;;;;;;;;;5070005;28;20028;-75
2023/01/23 04:33:53;;;;;;;15.57;9.02;;;;;;;;;;5058631;28;20024;-86
2023/01/23 04:36:38;;;;;;;15.93;9.38;;;;;;;;;;5058742;28;20035;-87
2023/01/23 04:39:23;;;;;;;15.15;8.85;;;;;;;;;;5075535;28;20540;-84
2023/01/23 04:42:09;;;;;;;15.73;10.00;;;;;;;;;;5069506;28;20040;-86
2023/01/23 04:44:55;;;;;;;18.15;12.02;;;;;;;;;;5065315;28;20121;-85
2023/01/23 04:47:40;;;;;;;16.17;10.32;;;;;;;;;;5064924;28;20035;-85
2023/01/23 04:50:25;;;;;;;16.42;10.38;;;;;;;;;;5074330;28;20532;-70
2023/01/23 04:53:11;;;;;;;18.33;9.38;;;;;;;;;;5067298;28;20120;-75
2023/01/23 04:55:57;;;;;;;17.15;9.98;;;;;;;;;;5074020;28;20103;-76
2023/01/23 04:58:43;;;;;;;17.58;10.95;;;;;;;;;;5058444;28;20024;-76
2023/01/23 05:01:29;;;;;;;18.15;9.63;;;;;;;;;;5073960;28;20039;-77
2023/01/23 05:04:14;;;;;;;15.65;10.82;;;;;;;;;;5066039;28;20036;-76
2023/01/23 05:06:59;;;;;;;14.95;9.73;;;;;;;;;;5061474;28;20028;-77
2023/01/23 05:09:44;;;;;;;15.70;9.82;;;;;;;;;;5066429;28;20059;-78
2023/01/23 05:12:30;;;;;;;18.63;10.25;;;;;;;;;;5057775;28;20021;-73
2023/01/23 05:15:16;;;;;;;14.93;9.63;;;;;;;;;;5073431;28;20064;-73
2023/01/23 05:18:01;;;;;;;19.00;11.05;;;;;;;;;;5070323;28;20396;-71
2023/01/23 05:20:46;;;;;;;17.27;10.68;;;;;;;;;;5072924;28;20032;-71
2023/01/23 05:23:32;;;;;;;19.17;10.75;;;;;;;;;;5060018;28;20048;-70
2023/01/23 05:26:17;;;;;;;19.48;11.27;;;;;;;;;;5074057;28;20666;-71
2023/01/23 05:29:02;;;;;;;16.60;9.77;;;;;;;;;;5068338;28;20506;-77
2023/01/23 05:31:47;;;;;;;14.82;8.98;;;;;;;;;;5069707;28;20025;-79
2023/01/23 05:34:33;;;;;;;16.02;9.68;;;;;;;;;;5053623;28;20530;-76
2023/01/23 05:37:19;;;;;;;14.20;9.32;;;;;;;;;;5065596;28;20020;-78
2023/01/23 05:40:07;;;;;;;15.52;10.05;;;;;;;;;;5053896;28;20032;-81
2023/01/23 05:42:52;;;;;;;16.63;10.07;;;;;;;;;;5068660;28;20451;-77
2023/01/23 05:45:37;;;;;;;18.23;11.10;;;;;;;;;;5072692;28;20028;-76
2023/01/23 05:48:22;;;;;;;16.35;10.52;;;;;;;;;;5083648;28;20023;-77
2023/01/23 05:51:08;;;;;;;18.33;11.27;;;;;;;;;;5077106;28;20494;-73
2023/01/23 05:53:53;;;;;;;18.05;11.15;;;;;;;;;;5075292;28;20417;-73
2023/01/23 05:56:38;;;;;;;18.00;11.35;;;;;;;;;;5090641;28;20046;-73
2023/01/23 05:59:23;;;;;;;17.13;11.07;;;;;;;;;;5085847;28;20028;-71
2023/01/23 06:02:09;;;;;;;15.85;9.98;;;;;;;;;;5065107;28;20527;-72
2023/01/23 06:04:54;;;;;;;20.13;11.18;;;;;;;;;;5073195;28;20101;-72
2023/01/23 06:07:39;;;;;;;18.48;10.40;;;;;;;;;;5067451;28;20059;-85
2023/01/23 06:10:24;;;;;;;16.08;9.80;;;;;;;;;;5071297;28;20039;-86
2023/01/23 06:13:10;;;;;;;19.58;11.13;;;;;;;;;;5071378;28;20494;-84
2023/01/23 06:15:55;;;;;;;16.20;9.13;;;;;;;;;;5084616;28;20108;-84
2023/01/23 06:18:41;;;;;;;19.73;10.73;;;;;;;;;;5087680;28;20016;-88
2023/01/23 06:21:26;;;;;;;15.77;9.70;;;;;;;;;;5096812;28;20035;-89
2023/01/23 06:24:11;;;;;;;17.15;9.82;;;;;;;;;;5069376;28;20067;-86
2023/01/23 06:26:56;;;;;;;17.58;10.18;;;;;;;;;;5080399;28;20024;-86
2023/01/23 06:29:42;;;;;;;18.35;10.77;;;;;;;;;;5086546;28;20658;-86
2023/01/23 06:32:27;;;;;;;16.27;9.70;;;;;;;;;;5074787;28;20065;-87
2023/01/23 06:35:12;;;;;;;18.13;10.60;;;;;;;;;;5067803;28;20461;-86
2023/01/23 06:37:57;;;;;;;16.92;9.57;;;;;;;;;;5090003;28;20024;-86
2023/01/23 06:40:42;;;;;;;17.60;9.95;;;;;;;;;;5080131;28;20120;-76
2023/01/23 06:43:28;;;;;;;19.95;10.68;;;;;;;;;;5078452;28;20044;-85
2023/01/23 06:46:14;;;;;;;17.00;9.82;;;;;;;;;;5069604;28;20082;-72
2023/01/23 06:48:59;;;;;;;19.05;11.55;;;;;;;;;;5082226;28;20095;-71
2023/01/23 06:51:44;;;;;;;16.85;9.73;;;;;;;;;;5084806;28;20020;-72
2023/01/23 06:54:29;;;;;;;20.15;11.30;;;;;;;;;;5081928;28;20083;-74
2023/01/23 06:57:15;;;;;;;15.55;9.35;;;;;;;;;;5064340;28;20495;-72
2023/01/23 07:00:00;;;;;;;17.92;9.57;;;;;;;;;;5067808;28;20047;-82
2023/01/23 07:02:45;;;;;;;20.05;11.48;;;;;;;;;;5067123;28;20205;-87
2023/01/23 07:05:31;;;;;;;18.80;9.65;;;;;;;;;;5076661;28;20048;-84
2023/01/23 07:08:16;;;;;;;16.80;9.52;;;;;;;;;;5060555;28;20076;-81
2023/01/23 07:11:03;;;;;;;17.15;10.25;;;;;;;;;;5084610;28;20028;-81
2023/01/23 07:13:48;;;;;;;17.27;10.15;;;;;;;;;;5095422;28;20302;-83
2023/01/23 07:16:34;;;;;;;21.05;11.52;;;;;;;;;;5064239;28;20029;-85
2023/01/23 07:19:20;;;;;;;19.85;11.95;;;;;;;;;;5071197;28;20043;-70
2023/01/23 07:22:05;;;;;;;17.88;9.48;;;;;;;;;;5090872;28;20463;-76
2023/01/23 07:24:50;;;;;;;20.50;11.90;;;;;;;;;;5063891;28;20515;-75
2023/01/23 07:27:35;;;;;;;19.58;10.77;;;;;;;;;;5069068;28;20020;-76
2023/01/23 07:30:21;;;;;;;21.38;11.35;;;;;;;;;;5075862;28;20156;-77
2023/01/23 07:33:06;;;;;;;21.88;11.18;;;;;;;;;;5066099;28;20374;-75
2023/01/23 07:35:51;;;;;;;19.92;10.55;;;;;;;;;;5081135;28;20028;-70
2023/01/23 07:38:36;;;;;;;18.05;10.43;;;;;;;;;;5075823;28;20020;-81
2023/01/23 07:41:22;;;;;;;20.63;10.45;;;;;;;;;;5082254;28;20169;-75
2023/01/23 07:44:07;;;;;;;19.67;11.50;;;;;;;;;;5072876;28;20565;-74
2023/01/23 07:46:52;;;;;;;18.45;10.70;;;;;;;;;;5078196;28;20028;-73
2023/01/23 07:49:38;;;;;;;21.77;12.77;;;;;;;;;;5072440;28;20111;-73
2023/01/23 07:52:23;;;;;;;25.17;14.02;;;;;;;;;;5078309;28;20020;-72
2023/01/23 07:55:08;;;;;;;21.48;11.15;;;;;;;;;;5079018;28;20219;-81
2023/01/23 07:57:54;;;;;;;18.73;11.38;;;;;;;;;;5070714;28;20039;-79
2023/01/23 08:00:40;;;;;;;18.90;10.77;;;;;;;;;;5060919;28;20029;-78
2023/01/23 08:03:27;;;;;;;22.23;10.90;;;;;;;;;;5071827;28;20059;-79
2023/01/23 08:06:13;;;;;;;20.48;12.18;;;;;;;;;;5060061;28;20054;-81
2023/01/23 08:08:58;;;;;;;20.15;12.02;;;;;;;;;;5076941;28;20111;-78
2023/01/23 08:11:43;;;;;;;20.02;11.00;;;;;;;;;;5075426;28;20029;-78
2023/01/23 08:14:29;;;;;;;21.10;12.27;;;;;;;;;;5059136;28;20083;-71
2023/01/23 08:17:14;;;;;;;22.30;11.95;;;;;;;;;;5059265;28;20154;-71
2023/01/23 08:19:59;;;;;;;22.42;11.98;;;;;;;;;;5076297;28;20421;-71
2023/01/23 08:22:46;;;;;;;20.50;11.52;;;;;;;;;;5091286;28;20034;-70
2023/01/23 08:25:31;;;;;;;22.88;13.02;;;;;;;;;;5065286;28;20347;-69
2023/01/23 08:28:16;;;;;;;23.02;12.27;;;;;;;;;;5076428;28;20436;-70
2023/01/23 08:31:03;;;;;;;21.75;12.77;;;;;;;;;;5073941;28;20020;-79
2023/01/23 08:33:48;;;;;;;21.20;11.25;;;;;;;;;;5070630;28;20052;-76
2023/01/23 08:36:33;;;;;;;21.85;11.85;;;;;;;;;;5075171;28;20026;-73
2023/01/23 08:39:19;;;;;;;27.00;11.60;;;;;;;;;;5068041;28;20122;-73
2023/01/23 08:42:04;;;;;;;18.95;11.57;;;;;;;;;;5070843;28;20630;-72
2023/01/23 08:44:49;;;;;;;21.63;12.85;;;;;;;;;;5073630;28;20051;-74
2023/01/23 08:47:35;;;;;;;18.35;10.50;;;;;;;;;;5080831;28;20024;-73
2023/01/23 08:50:20;;;;;;;21.23;11.40;;;;;;;;;;5075811;28;20450;-73
2023/01/23 08:53:05;;;;;;;22.48;11.88;;;;;;;;;;5080198;28;20024;-76
2023/01/23 08:55:51;;;;;;;20.98;11.75;;;;;;;;;;5070302;28;20032;-75
2023/01/23 08:58:36;;;;;;;21.20;11.68;;;;;;;;;;5081223;28;20048;-72
2023/01/23 09:01:22;;;;;;;19.95;12.13;;;;;;;;;;5085237;28;20028;-75
2023/01/23 09:04:08;;;;;;;19.23;10.20;;;;;;;;;;5069710;28;20121;-73
2023/01/23 09:06:53;;;;;;;18.33;10.30;;;;;;;;;;5064255;28;20460;-73
2023/01/23 09:09:38;;;;;;;20.90;12.43;;;;;;;;;;5075290;28;20083;-70
2023/01/23 09:12:25;;;;;;;20.15;10.63;;;;;;;;;;5079092;28;20020;-86
2023/01/23 09:15:12;;;;;;;20.45;10.18;;;;;;;;;;5061846;28;20082;-82
2023/01/23 09:17:58;;;;;;;22.98;11.23;;;;;;;;;;5079701;28;20069;-76
2023/01/23 09:20:46;;;;;;;18.08;10.48;;;;;;;;;;5057701;28;20479;-78
2023/01/23 09:23:32;;;;;;;17.42;9.98;;;;;;;;;;5066153;28;20410;-74
2023/01/23 09:26:17;;;;;;;19.88;9.90;;;;;;;;;;5061556;28;20024;-75
2023/01/23 09:29:05;;;;;;;20.33;10.55;;;;;;;;;;5078809;28;20130;-72
2023/01/23 09:31:50;;;;;;;18.90;9.25;;;;;;;;;;5097215;28;20057;-70
2023/01/23 09:34:36;;;;;;;20.98;9.43;;;;;;;;;;5080686;28;20024;-71
2023/01/23 09:37:21;;;;;;;18.30;8.15;;;;;;;;;;5075274;28;20475;-70
2023/01/23 09:40:13;;;;;;;19.55;8.50;;;;;;;;;;5074749;28;20032;-71
2023/01/23 09:43:08;;;;;;;16.65;8.57;;;;;;;;;;5077612;28;20074;-71
2023/01/23 09:46:09;;;;;;;14.52;8.00;;;;;;;;;;5072421;28;20067;-71
2023/01/23 09:49:00;;;;;;;14.68;8.52;;;;;;;;;;5064237;28;20038;-72
2023/01/23 09:51:51;;;;;;;15.55;8.23;;;;;;;;;;5072596;28;20135;-72
2023/01/23 09:54:47;;;;;;;17.65;10.05;;;;;;;;;;5078338;28;20021;-70
2023/01/23 09:57:40;;;;;;;17.80;9.05;;;;;;;;;;5086233;28;20028;-69
2023/01/23 10:00:27;;;;;;;24.05;10.00;;;;;;;;;;5072525;28;20066;-71
2023/01/23 10:03:14;;;;;;;18.35;9.32;;;;;;;;;;5076789;28;20023;-77
2023/01/23 10:06:05;;;;;;;15.52;9.00;;;;;;;;;;5074196;28;20036;-75
2023/01/23 10:08:59;;;;;;;20.70;9.52;;;;;;;;;;5077545;28;20032;-74
2023/01/23 10:11:51;;;;;;;14.43;8.00;;;;;;;;;;5080123;28;20028;-76
2023/01/23 10:14:55;;;;;;;15.00;8.10;;;;;;;;;;5058729;28;20016;-78
2023/01/23 10:17:51;;;;;;;12.98;7.00;;;;;;;;;;5084428;28;20060;-79
2023/01/23 10:20:49;;;;;;;12.13;7.13;;;;;;;;;;5082478;28;20020;-76
2023/01/23 10:23:46;;;;;;;16.98;8.57;;;;;;;;;;5076774;28;20412;-74
2023/01/23 10:26:40;;;;;;;15.98;8.25;;;;;;;;;;5092799;28;20073;-74
2023/01/23 10:29:30;;;;;;;16.13;9.27;;;;;;;;;;5073615;28;20035;-74
2023/01/23 10:32:20;;;;;;;14.52;8.82;;;;;;;;;;5075055;28;20545;-78
2023/01/23 10:35:14;;;;;;;14.82;8.68;;;;;;;;;;5083777;28;20019;-76
2023/01/23 10:38:04;;;;;;;16.45;8.48;;;;;;;;;;5087158;28;20043;-71
2023/01/23 10:43:53;;;;;;;15.90;8.13;;;;;;;;;;5071941;28;20139;-74
2023/01/23 10:46:44;;;;;;;14.98;8.43;;;;;;;;;;5088198;28;20065;-74
2023/01/23 10:49:38;;;;;;;18.77;8.55;;;;;;;;;;5063593;28;20383;-70
2023/01/23 10:52:37;;;;;;;15.82;8.82;;;;;;;;;;5077489;28;21628;-73
2023/01/23 10:55:23;;;;;;;15.70;9.52;;;;;;;;;;5080776;28;20070;-72
2023/01/23 10:58:20;;;;;;;17.35;9.82;;;;;;;;;;5079312;28;20028;-75
2023/01/23 11:01:22;;;;;;;18.75;9.80;;;;;;;;;;5070201;28;20039;-81
2023/01/23 11:04:17;;;;;;;17.52;9.52;;;;;;;;;;5094497;28;20044;-69
2023/01/23 11:07:02;;;;;;;16.88;8.65;;;;;;;;;;5082797;28;20047;-70
2023/01/23 11:09:52;;;;;;;17.90;9.13;;;;;;;;;;5077551;28;20569;-71
2023/01/23 11:12:48;;;;;;;16.95;8.75;;;;;;;;;;5054872;28;20029;-72
2023/01/23 11:15:37;;;;;;;13.48;7.43;;;;;;;;;;5074995;28;20462;-71
2023/01/23 11:18:28;;;;;;;12.73;6.93;;;;;;;;;;5086103;28;20036;-75
2023/01/23 11:21:25;;;;;;;14.65;8.55;;;;;;;;;;5076818;28;20270;-74
2023/01/23 11:24:16;;;;;;;16.83;8.82;;;;;;;;;;5060093;28;20040;-76
2023/01/23 11:27:16;;;;;;;17.92;8.82;;;;;;;;;;5079376;28;20035;-77
2023/01/23 11:30:07;;;;;;;17.60;10.48;;;;;;;;;;5110091;27;20023;-73
2023/01/23 11:32:58;;;;;;;17.40;8.98;;;;;;;;;;5078067;28;20513;-75
2023/01/23 11:35:48;;;;;;;22.85;10.45;;;;;;;;;;5071193;28;20471;-82
2023/01/23 11:38:40;;;;;;;15.93;9.60;;;;;;;;;;5081008;28;20044;-72
2023/01/23 11:41:29;;;;;;;16.95;9.57;;;;;;;;;;5079586;28;20085;-74
2023/01/23 11:44:19;;;;;;;18.95;10.52;;;;;;;;;;5080060;28;20070;-70
2023/01/23 11:47:04;;;;;;;;;;;;;;;;;;5078168;28;20028;-71
2023/01/23 11:50:07;;;;;;;18.25;9.57;;;;;;;;;;5073583;28;19916;-74
2023/01/23 11:52:55;;;;;;;14.60;8.43;;;;;;;;;;5053388;28;20124;-70
2023/01/23 11:55:43;;;;;;;18.95;9.93;;;;;;;;;;5077894;28;20016;-74
2023/01/23 11:58:47;;;;;;;19.80;9.60;;;;;;;;;;5075428;28;20020;-72
2023/01/23 12:01:35;;;;;;;17.67;9.57;;;;;;;;;;5080278;28;20746;-70
2023/01/23 12:04:23;;;;;;;16.92;8.82;;;;;;;;;;5075728;28;20093;-70
2023/01/23 12:07:08;;;;;;;22.42;10.15;;;;;;;;;;5083912;28;20032;-70
2023/01/23 12:10:03;;;;;;;18.65;9.20;;;;;;;;;;5080904;28;21293;-69
2023/01/23 12:13:09;;;;;;;18.10;9.30;;;;;;;;;;5079837;28;20035;-70
2023/01/23 12:15:54;;;;;;;19.58;10.50;;;;;;;;;;5076138;28;20105;-73
2023/01/23 12:18:52;;;;;;;18.48;10.00;;;;;;;;;;5072602;28;20033;-71
2023/01/23 12:21:41;;;;;;;16.48;9.32;;;;;;;;;;5062843;28;20487;-71
2023/01/23 12:24:39;;;;;;;16.67;9.50;;;;;;;;;;5069363;28;20036;-74
2023/01/23 12:27:36;;;;;;;21.05;11.07;;;;;;;;;;5074055;28;20051;-73
2023/01/23 12:30:25;;;;;;;19.73;11.15;;;;;;;;;;5075435;28;20075;-73
2023/01/23 12:33:13;;;;;;;17.27;10.10;;;;;;;;;;5070847;28;20119;-70
2023/01/23 12:36:04;;;;;;;20.67;11.30;;;;;;;;;;5084901;28;20028;-80
2023/01/23 12:39:08;;;;;;;20.20;9.85;;;;;;;;;;5070166;28;20490;-82
2023/01/23 12:42:02;;;;;;;22.40;10.63;;;;;;;;;;5070067;28;20055;-79
2023/01/23 12:44:53;;;;;;;20.65;10.90;;;;;;;;;;5076564;28;20040;-81
2023/01/23 12:47:58;;;;;;;19.30;10.43;;;;;;;;;;5071570;28;20051;-78
2023/01/23 12:50:50;;;;;;;17.60;10.35;;;;;;;;;;5071211;28;20498;-72
2023/01/23 12:53:37;;;;;;;20.30;10.00;;;;;;;;;;5079495;28;20028;-71
2023/01/23 12:56:24;;;;;;;18.10;9.95;;;;;;;;;;5077188;28;20119;-70
2023/01/23 12:59:09;;;;;;;16.05;9.55;;;;;;;;;;5074805;28;20113;-70
2023/01/23 13:02:01;;;;;;;16.02;9.30;;;;;;;;;;5059758;28;20111;-71
2023/01/23 13:04:54;;;;;;;15.88;9.13;;;;;;;;;;5074123;28;20071;-72
2023/01/23 13:07:58;;;;;;;16.73;9.07;;;;;;;;;;5070478;28;20020;-72
2023/01/23 13:13:48;;;;;;;16.27;9.23;;;;;;;;;;5085740;28;20039;-70
2023/01/23 13:16:43;;;;;;;18.50;9.45;;;;;;;;;;5071917;28;20028;-70
2023/01/23 13:22:37;;;;;;;15.93;8.55;;;;;;;;;;5074382;28;20926;-69
2023/01/23 13:25:22;;;;;;;16.15;8.73;;;;;;;;;;5075483;28;20492;-74
2023/01/23 13:28:27;;;;;;;17.75;9.50;;;;;;;;;;5058397;28;20051;-72
2023/01/23 13:31:33;;;;;;;18.17;9.77;;;;;;;;;;5062737;28;20021;-73
2023/01/23 13:34:19;;;;;;;16.83;8.48;;;;;;;;;;5076284;28;20173;-72
2023/01/23 13:37:23;;;;;;;16.27;9.55;;;;;;;;;;5068606;28;20494;-71
2023/01/23 13:40:16;;;;;;;15.05;8.63;;;;;;;;;;5080964;28;20116;-71
2023/01/23 13:43:21;;;;;;;16.98;9.25;;;;;;;;;;5071229;28;20052;-71
2023/01/23 13:46:10;;;;;;;18.88;9.45;;;;;;;;;;5083915;28;20385;-72
2023/01/23 13:58:23;;;;;;;16.48;8.55;;;;;;;;;;5086213;28;20032;-67
2023/01/23 14:07:43;;;;;;;16.55;8.93;;;;;;;;;;5080626;28;20024;-72
2023/01/23 14:10:35;;;;;;;18.80;9.48;;;;;;;;;;5088175;28;20458;-74
2023/01/23 14:13:21;;;;;;;16.83;9.85;;;;;;;;;;5075163;28;20090;-74
2023/01/23 14:16:11;;;;;;;16.10;9.10;;;;;;;;;;5061217;28;20024;-75
2023/01/23 14:18:59;;;;;;;15.65;8.68;;;;;;;;;;5081375;28;20028;-73
2023/01/23 14:21:51;;;;;;;16.23;9.13;;;;;;;;;;5073153;28;20059;-73
2023/01/23 14:24:46;;;;;;;17.30;9.95;;;;;;;;;;5079409;28;20050;-69
2023/01/23 14:27:33;;;;;;;15.90;8.68;;;;;;;;;;5078792;28;20058;-72
2023/01/23 14:30:20;;;;;;;15.88;9.52;;;;;;;;;;5079442;28;20042;-69
2023/01/23 14:33:15;;;;;;;17.35;9.48;;;;;;;;;;5073666;28;20024;-68
2023/01/23 14:36:00;;;;;;;18.10;9.55;;;;;;;;;;5075888;28;20126;-70
2023/01/23 14:38:47;;;;;;;18.50;9.75;;;;;;;;;;5072940;28;20851;-69
2023/01/23 14:41:34;;;;;;;16.70;9.45;;;;;;;;;;5073566;28;20030;-70
2023/01/23 14:44:21;;;;;;;14.45;8.60;;;;;;;;;;5073441;28;20122;-71
2023/01/23 14:47:10;;;;;;;17.77;9.35;;;;;;;;;;5079865;28;20367;-73
2023/01/23 14:49:56;;;;;;;17.40;9.50;;;;;;;;;;5085711;28;20318;-73
2023/01/23 14:52:41;;;;;;;16.15;8.60;;;;;;;;;;5081663;28;20038;-72
2023/01/23 14:55:28;;;;;;;18.67;8.85;;;;;;;;;;5076030;28;20040;-73
2023/01/23 14:58:19;;;;;;;16.10;8.93;;;;;;;;;;5068979;28;20021;-78
2023/01/23 15:01:04;;;;;;;16.52;8.35;;;;;;;;;;5079932;28;20142;-73
2023/01/23 15:03:57;;;;;;;15.88;8.88;;;;;;;;;;5065350;28;20516;-75
2023/01/23 15:06:42;;;;;;;17.23;9.68;;;;;;;;;;5070199;28;20028;-75
2023/01/23 15:09:40;;;;;;;14.73;8.70;;;;;;;;;;5074808;28;20023;-74
2023/01/23 15:12:26;;;;;;;16.60;8.27;;;;;;;;;;5077625;28;20031;-71
2023/01/23 15:15:18;;;;;;;14.25;8.63;;;;;;;;;;5060305;28;20037;-72
2023/01/23 15:18:15;;;;;;;15.57;9.07;;;;;;;;;;5079134;28;20027;-72
2023/01/23 15:21:01;;;;;;;17.08;9.73;;;;;;;;;;5082501;28;20039;-73
2023/01/23 15:24:03;;;;;;;17.10;9.13;;;;;;;;;;5082061;28;20071;-71
2023/01/23 15:26:56;;;;;;;15.25;9.15;;;;;;;;;;5082092;28;20164;-71
2023/01/23 15:29:43;;;;;;;13.50;7.72;;;;;;;;;;5075973;28;20032;-71
2023/01/23 15:32:31;;;;;;;14.52;8.32;;;;;;;;;;5073573;28;20081;-71
2023/01/23 15:35:17;;;;;;;14.98;8.45;;;;;;;;;;5060042;28;20115;-70
2023/01/23 15:38:03;;;;;;;14.95;8.50;;;;;;;;;;5075760;28;20074;-76
2023/01/23 15:40:49;;;;;;;17.13;9.90;;;;;;;;;;5078591;28;20043;-78
2023/01/23 15:43:35;;;;;;;17.35;10.98;;;;;;;;;;5058706;28;20037;-79
2023/01/23 15:46:20;;;;;;;17.35;10.65;;;;;;;;;;5077557;28;20118;-76
2023/01/23 15:49:05;;;;;;;15.70;9.75;;;;;;;;;;5066688;28;20096;-76
2023/01/23 15:51:51;;;;;;;15.52;8.82;;;;;;;;;;5072243;28;20032;-76
2023/01/23 15:54:40;;;;;;;17.08;9.80;;;;;;;;;;5081203;28;20415;-71
2023/01/23 15:57:26;;;;;;;16.85;10.40;;;;;;;;;;5084742;28;20383;-75
2023/01/23 16:00:15;;;;;;;14.70;8.65;;;;;;;;;;5076665;28;20078;-74
2023/01/23 16:03:01;;;;;;;16.35;9.45;;;;;;;;;;5074864;28;20114;-72
2023/01/23 16:05:46;;;;;;;17.40;9.43;;;;;;;;;;5061571;28;20650;-72
2023/01/23 16:08:31;;;;;;;17.60;9.55;;;;;;;;;;5079661;28;20479;-71
2023/01/23 16:11:17;;;;;;;16.35;8.73;;;;;;;;;;5076907;28;20058;-73
2023/01/23 16:14:02;;;;;;;15.25;8.93;;;;;;;;;;5074945;28;20054;-74
2023/01/23 16:16:47;;;;;;;15.10;8.68;;;;;;;;;;5063337;28;20437;-79
2023/01/23 16:19:32;;;;;;;18.30;10.20;;;;;;;;;;5052525;28;20096;-75
2023/01/23 16:22:27;;;;;;;16.73;9.68;;;;;;;;;;5069157;28;20056;-76
2023/01/23 16:25:22;;;;;;;17.48;9.48;;;;;;;;;;5080036;28;20024;-77
2023/01/23 16:28:10;;;;;;;20.80;9.10;;;;;;;;;;5064228;28;20345;-81
2023/01/23 16:30:57;;;;;;;16.27;9.65;;;;;;;;;;5075327;28;20069;-81
2023/01/23 16:33:42;;;;;;;17.23;9.57;;;;;;;;;;5075304;28;20039;-71
2023/01/23 16:36:28;;;;;;;13.82;8.68;;;;;;;;;;5079762;28;20040;-75
2023/01/23 16:39:18;;;;;;;19.67;9.77;;;;;;;;;;5056177;28;20051;-72
2023/01/23 16:42:03;;;;;;;;;;;;;;;;;;5061997;28;20036;-73
2023/01/23 16:44:49;;;;;;;17.77;10.38;;;;;;;;;;5070372;28;19920;-73
2023/01/23 16:47:34;;;;;;;17.63;10.43;;;;;;;;;;5064856;28;20107;-73
2023/01/23 16:50:40;;;;;;;16.70;10.00;;;;;;;;;;5091595;28;20154;-74
2023/01/23 16:53:27;;;;;;;19.08;10.50;;;;;;;;;;5070363;28;20030;-73
2023/01/23 16:56:23;;;;;;;17.58;9.20;;;;;;;;;;5067250;28;20392;-78